Time;durP1;ratioP1;P1;durP2;ratioP2;P2;SDS_P1;SDS_P2;PMS_P1;PMS_P2;Temp;Humidity;BMP_temperature;BMP_pressure;BME280_temperature;BME280_humidity;BME280_pressure;Samples;Min_cycle;Max_cycle;Signal;HPM_P1;HPM_P2
2022/05/11 00:00:00;;;;;;;11.63;6.88;;;14.40;99.90;;;;;;5024734;28;20053;-69
2022/05/11 00:02:26;;;;;;;10.65;6.82;;;14.50;99.90;;;;;;5045951;28;20051;-69
2022/05/11 00:04:51;;;;;;;11.65;6.78;;;14.40;99.90;;;;;;5038701;28;20091;-67
2022/05/11 00:07:17;;;;;;;11.80;7.18;;;14.50;99.90;;;;;;5025437;28;20041;-72
2022/05/11 00:09:43;;;;;;;9.43;6.20;;;14.60;99.90;;;;;;5035451;28;20041;-70
2022/05/11 00:12:09;;;;;;;11.10;5.95;;;14.70;99.90;;;;;;5037522;28;20124;-68
2022/05/11 00:14:35;;;;;;;8.90;5.90;;;14.90;99.90;;;;;;5026301;28;20052;-68
2022/05/11 00:17:01;;;;;;;11.13;6.32;;;14.90;99.90;;;;;;5027357;28;20033;-69
2022/05/11 00:19:27;;;;;;;11.35;6.03;;;14.90;99.90;;;;;;5043478;28;20098;-69
2022/05/11 00:21:53;;;;;;;8.48;6.15;;;15.00;99.90;;;;;;5044577;28;20392;-71
2022/05/11 00:24:19;;;;;;;9.18;5.60;;;15.10;99.90;;;;;;5043252;28;20051;-69
2022/05/11 00:26:45;;;;;;;12.00;6.60;;;15.10;99.90;;;;;;5026108;28;20048;-70
2022/05/11 00:29:11;;;;;;;10.43;7.07;;;15.20;99.90;;;;;;5031288;28;20480;-69
2022/05/11 00:31:37;;;;;;;9.93;6.30;;;15.10;99.90;;;;;;5044452;28;20476;-67
2022/05/11 00:34:03;;;;;;;8.73;6.32;;;15.10;99.90;;;;;;5048056;28;20055;-67
2022/05/11 00:36:29;;;;;;;11.10;6.85;;;15.10;99.90;;;;;;5038292;28;20059;-70
2022/05/11 00:38:54;;;;;;;11.80;6.05;;;15.30;99.90;;;;;;5026473;28;20037;-70
2022/05/11 00:41:20;;;;;;;11.68;6.88;;;15.20;99.90;;;;;;5028032;28;20037;-71
2022/05/11 00:43:55;;;;;;;12.68;7.32;;;15.10;99.90;;;;;;5021706;28;20072;-68
2022/05/11 00:46:44;;;;;;;9.75;6.35;;;15.30;99.90;;;;;;5025500;28;20044;-72
2022/05/11 00:49:36;;;;;;;10.23;7.15;;;15.30;99.90;;;;;;5035109;28;20132;-69
2022/05/11 00:52:18;;;;;;;11.93;6.30;;;15.20;99.90;;;;;;5022559;28;20033;-70
2022/05/11 00:55:02;;;;;;;10.15;6.63;;;15.20;99.90;;;;;;5045644;28;20080;-69
2022/05/11 00:57:51;;;;;;;9.73;6.40;;;15.20;99.90;;;;;;5028481;28;20071;-68
2022/05/11 01:00:21;;;;;;;12.20;7.60;;;15.10;99.90;;;;;;5041064;28;20033;-69
2022/05/11 01:02:50;;;;;;;11.38;6.82;;;15.20;99.90;;;;;;5021164;28;20033;-70
2022/05/11 01:05:16;;;;;;;11.50;6.95;;;15.20;99.90;;;;;;5045178;28;20063;-70
2022/05/11 01:07:42;;;;;;;10.75;7.22;;;15.20;99.90;;;;;;5025977;28;20126;-69
2022/05/11 01:10:09;;;;;;;14.90;7.05;;;15.20;99.90;;;;;;5020517;28;20048;-67
2022/05/11 01:12:47;;;;;;;11.68;7.10;;;15.40;99.90;;;;;;5034589;28;20041;-69
2022/05/11 01:15:14;;;;;;;13.77;7.88;;;15.50;99.90;;;;;;5040488;28;20094;-68
2022/05/11 01:17:41;;;;;;;9.82;7.07;;;15.40;99.90;;;;;;5038645;28;21044;-67
2022/05/11 01:20:19;;;;;;;10.98;7.15;;;15.50;99.90;;;;;;5035511;28;20029;-71
2022/05/11 01:22:51;;;;;;;10.88;7.07;;;15.40;99.90;;;;;;5035473;28;20041;-70
2022/05/11 01:25:18;;;;;;;10.02;6.50;;;15.40;99.90;;;;;;5037249;28;20052;-69
2022/05/11 01:27:46;;;;;;;10.90;7.40;;;15.50;99.90;;;;;;5022540;28;20029;-71
2022/05/11 01:30:18;;;;;;;12.73;7.20;;;15.30;99.90;;;;;;5038206;28;20056;-68
2022/05/11 01:32:47;;;;;;;10.80;7.28;;;15.40;99.90;;;;;;5019300;28;20041;-70
2022/05/11 01:35:49;;;;;;;12.65;7.53;;;15.50;99.90;;;;;;5041831;28;20041;-67
2022/05/11 01:38:26;;;;;;;13.05;7.57;;;15.50;99.90;;;;;;5040467;28;20041;-68
2022/05/11 01:40:52;;;;;;;12.93;7.25;;;15.60;99.90;;;;;;5038206;28;20056;-72
2022/05/11 01:43:24;;;;;;;11.07;6.82;;;15.30;99.90;;;;;;5033903;28;20041;-68
2022/05/11 01:45:50;;;;;;;10.68;7.00;;;15.40;99.90;;;;;;5043915;28;20045;-67
2022/05/11 01:48:16;;;;;;;10.25;7.00;;;15.40;99.90;;;;;;5030251;28;20518;-73
2022/05/11 01:50:42;;;;;;;11.00;7.25;;;15.40;99.90;;;;;;5038984;28;20068;-71
2022/05/11 01:53:08;;;;;;;10.02;6.05;;;15.40;99.90;;;;;;5028570;28;20041;-69
2022/05/11 01:55:34;;;;;;;10.50;6.50;;;15.40;99.90;;;;;;5042161;28;20033;-69
2022/05/11 01:58:01;;;;;;;9.43;6.97;;;15.50;99.90;;;;;;5056231;28;20415;-70
2022/05/11 02:00:26;;;;;;;8.60;6.80;;;15.30;99.90;;;;;;5025873;28;20044;-70
2022/05/11 02:02:52;;;;;;;10.90;6.90;;;15.40;99.90;;;;;;5025401;28;20048;-67
2022/05/11 02:08:02;;;;;;;7.85;6.40;;;15.20;99.90;;;;;;5039527;28;20048;-73
2022/05/11 02:10:29;;;;;;;8.63;5.55;;;15.20;99.90;;;;;;5030429;28;20032;-69
2022/05/11 02:12:58;;;;;;;8.55;5.35;;;15.30;99.90;;;;;;5043070;28;20140;-69
2022/05/11 02:15:25;;;;;;;13.13;5.80;;;15.20;99.90;;;;;;5029180;28;20523;-70
2022/05/11 02:17:52;;;;;;;10.20;6.18;;;15.10;99.90;;;;;;5049280;28;20056;-70
2022/05/11 02:20:18;;;;;;;7.60;6.32;;;15.10;99.90;;;;;;5045397;28;20056;-68
2022/05/11 02:22:45;;;;;;;10.60;6.07;;;14.90;99.90;;;;;;5039784;28;20119;-72
2022/05/11 02:25:13;;;;;;;10.55;6.63;;;15.00;99.90;;;;;;5042579;28;20051;-68
2022/05/11 02:27:38;;;;;;;7.47;5.88;;;14.80;99.90;;;;;;5053420;28;20388;-68
2022/05/11 02:30:07;;;;;;;9.40;6.13;;;14.90;99.90;;;;;;5039654;28;20075;-67
2022/05/11 02:32:32;;;;;;;10.35;6.97;;;15.00;99.90;;;;;;5030679;28;20064;-68
2022/05/11 02:35:13;;;;;;;9.98;5.95;;;14.90;99.90;;;;;;5050078;28;20085;-69
2022/05/11 02:37:47;;;;;;;8.05;6.05;;;14.80;99.90;;;;;;5047104;28;20069;-69
2022/05/11 02:40:15;;;;;;;7.20;5.72;;;14.80;99.90;;;;;;5045629;28;20052;-68
2022/05/11 02:42:41;;;;;;;10.20;5.82;;;14.80;99.90;;;;;;5039390;28;20049;-66
2022/05/11 02:45:08;;;;;;;8.93;5.68;;;14.80;99.90;;;;;;5043217;28;20041;-68
2022/05/11 02:47:34;;;;;;;10.63;6.13;;;14.60;99.90;;;;;;5044665;28;20037;-67
2022/05/11 02:50:03;;;;;;;9.73;6.32;;;14.60;99.90;;;;;;5038368;28;20046;-69
2022/05/11 02:52:29;;;;;;;8.23;6.13;;;14.70;99.90;;;;;;5042939;28;20032;-69
2022/05/11 02:54:55;;;;;;;12.65;6.85;;;14.50;99.90;;;;;;5030260;28;21352;-71
2022/05/11 02:57:20;;;;;;;11.68;6.15;;;14.50;99.90;;;;;;5019447;28;20122;-69
2022/05/11 02:59:49;;;;;;;12.35;5.90;;;14.70;99.90;;;;;;5039396;28;20068;-70
2022/05/11 03:02:20;;;;;;;8.48;5.35;;;14.50;99.90;;;;;;5041416;28;20044;-70
2022/05/11 03:04:46;;;;;;;9.20;6.20;;;14.50;99.90;;;;;;5040027;28;20666;-69
2022/05/11 03:07:12;;;;;;;7.75;5.57;;;14.50;99.90;;;;;;5024470;28;20053;-71
2022/05/11 03:09:38;;;;;;;7.55;5.82;;;14.40;99.90;;;;;;5044848;28;20040;-67
2022/05/11 03:12:04;;;;;;;9.07;6.25;;;14.50;99.90;;;;;;5042768;28;20434;-71
2022/05/11 03:14:30;;;;;;;10.85;5.90;;;14.50;99.90;;;;;;5038417;28;20034;-70
2022/05/11 03:16:55;;;;;;;9.10;5.72;;;14.50;99.90;;;;;;5038453;28;20036;-68
2022/05/11 03:19:21;;;;;;;8.48;5.78;;;14.40;99.90;;;;;;5029153;28;20091;-72
2022/05/11 03:21:47;;;;;;;10.82;5.78;;;14.30;99.90;;;;;;5026442;28;20389;-69
2022/05/11 03:24:13;;;;;;;7.82;5.22;;;14.20;99.90;;;;;;5039173;28;20049;-72
2022/05/11 03:26:39;;;;;;;10.40;5.65;;;14.30;99.90;;;;;;5046402;28;20045;-69
2022/05/11 03:29:05;;;;;;;7.95;5.05;;;14.30;99.90;;;;;;5038968;28;20567;-70
2022/05/11 03:31:35;;;;;;;8.77;5.30;;;14.20;99.90;;;;;;5041753;28;20052;-68
2022/05/11 03:36:50;;;;;;;6.43;4.78;;;14.20;99.90;;;;;;5044569;28;20049;-67
2022/05/11 03:39:17;;;;;;;11.05;5.20;;;14.30;99.90;;;;;;5042008;28;20049;-68
2022/05/11 03:41:45;;;;;;;9.48;5.40;;;14.30;99.90;;;;;;5035295;28;20036;-68
2022/05/11 03:44:12;;;;;;;6.63;4.93;;;14.40;99.90;;;;;;5037850;28;20444;-71
2022/05/11 03:46:38;;;;;;;8.25;4.85;;;14.20;99.90;;;;;;5022964;28;20136;-70
2022/05/11 03:49:04;;;;;;;7.47;4.63;;;14.20;99.90;;;;;;5039674;28;20051;-69
2022/05/11 03:51:30;;;;;;;7.13;4.78;;;14.20;99.90;;;;;;5039171;28;20029;-69
2022/05/11 03:53:56;;;;;;;7.55;5.35;;;14.20;99.90;;;;;;5043082;28;20465;-68
2022/05/11 03:56:22;;;;;;;12.02;5.43;;;14.30;99.90;;;;;;5045219;28;20029;-68
2022/05/11 03:58:47;;;;;;;7.60;4.80;;;14.20;99.90;;;;;;5038002;28;20044;-71
2022/05/11 04:01:14;;;;;;;8.23;5.20;;;14.40;99.90;;;;;;5038130;28;20598;-67
2022/05/11 04:03:41;;;;;;;8.55;5.10;;;14.20;99.90;;;;;;5040776;28;20049;-68
2022/05/11 04:06:06;;;;;;;5.80;4.70;;;14.30;99.90;;;;;;5043107;28;20037;-69
2022/05/11 04:08:33;;;;;;;8.02;5.50;;;14.10;99.90;;;;;;5042269;28;20048;-69
2022/05/11 04:10:58;;;;;;;7.75;5.10;;;14.20;99.90;;;;;;5040755;28;20140;-71
2022/05/11 04:13:24;;;;;;;11.38;5.30;;;14.20;99.90;;;;;;5040216;28;20037;-70
2022/05/11 04:15:52;;;;;;;8.20;5.25;;;14.10;99.90;;;;;;5039723;28;20037;-68
2022/05/11 04:18:19;;;;;;;8.40;5.03;;;14.20;99.90;;;;;;5040065;28;20094;-67
2022/05/11 04:20:45;;;;;;;8.40;5.40;;;14.20;99.90;;;;;;5037442;28;20036;-68
2022/05/11 04:23:11;;;;;;;8.00;5.50;;;14.10;99.90;;;;;;5044974;28;20045;-68
2022/05/11 04:25:37;;;;;;;8.20;5.18;;;14.20;99.90;;;;;;5013901;28;20157;-68
2022/05/11 04:28:07;;;;;;;8.85;5.70;;;14.30;99.90;;;;;;5047606;28;20419;-68
2022/05/11 04:30:33;;;;;;;10.73;5.82;;;14.30;99.90;;;;;;5026274;28;22360;-71
2022/05/11 04:32:59;;;;;;;9.68;5.28;;;14.30;99.90;;;;;;5042739;28;20049;-69
2022/05/11 04:35:30;;;;;;;9.88;5.55;;;14.30;99.90;;;;;;5040273;28;20079;-68
2022/05/11 04:38:00;;;;;;;8.65;5.18;;;14.20;99.90;;;;;;5025654;28;20053;-68
2022/05/11 04:40:27;;;;;;;9.43;5.07;;;14.30;99.90;;;;;;5040020;28;20369;-68
2022/05/11 04:42:53;;;;;;;8.70;4.85;;;14.30;99.90;;;;;;5037795;28;20037;-68
2022/05/11 04:45:19;;;;;;;8.65;5.18;;;14.30;99.90;;;;;;5038889;28;21868;-68
2022/05/11 04:47:45;;;;;;;7.70;4.65;;;14.40;99.90;;;;;;5039386;28;20056;-67
2022/05/11 04:50:14;;;;;;;8.40;5.13;;;14.20;99.90;;;;;;5048422;28;20036;-69
2022/05/11 04:52:39;;;;;;;10.65;5.50;;;14.30;99.90;;;;;;5040003;28;20041;-65
2022/05/11 04:55:09;;;;;;;10.02;6.15;;;14.30;99.90;;;;;;5015092;28;20436;-68
2022/05/11 04:57:35;;;;;;;11.75;5.30;;;14.40;99.90;;;;;;5041064;28;20044;-68
2022/05/11 05:00:01;;;;;;;7.80;4.60;;;14.40;99.90;;;;;;5023581;28;21266;-66
2022/05/11 05:02:30;;;;;;;8.32;5.38;;;14.20;99.90;;;;;;5025385;28;20060;-68
2022/05/11 05:05:00;;;;;;;11.63;5.28;;;14.30;99.90;;;;;;5045649;28;20377;-69
2022/05/11 05:07:27;;;;;;;8.13;4.78;;;14.30;99.90;;;;;;5038502;28;20472;-70
2022/05/11 05:09:53;;;;;;;7.55;4.57;;;14.30;99.90;;;;;;5039608;28;20068;-67
2022/05/11 05:12:19;;;;;;;6.18;4.47;;;14.40;99.90;;;;;;5037185;28;20080;-69
2022/05/11 05:14:44;;;;;;;10.15;5.13;;;14.20;99.90;;;;;;5026649;28;20088;-68
2022/05/11 05:17:13;;;;;;;8.25;5.20;;;14.30;99.90;;;;;;5025197;28;21458;-69
2022/05/11 05:19:43;;;;;;;8.27;4.45;;;14.30;99.90;;;;;;5046310;28;20059;-69
2022/05/11 05:22:09;;;;;;;7.13;4.22;;;14.40;99.90;;;;;;5052059;28;20119;-68
2022/05/11 05:24:37;;;;;;;9.23;4.50;;;14.40;99.90;;;;;;5051938;28;20037;-69
2022/05/11 05:27:04;;;;;;;9.23;4.82;;;14.50;99.90;;;;;;5048256;28;20466;-70
2022/05/11 05:32:15;;;;;;;9.23;4.60;;;14.30;99.90;;;;;;5046337;28;20049;-69
2022/05/11 05:34:43;;;;;;;6.70;4.78;;;14.40;99.90;;;;;;5046376;28;20075;-68
2022/05/11 05:37:10;;;;;;;9.57;4.50;;;14.50;99.90;;;;;;5029904;28;20072;-68
2022/05/11 05:39:36;;;;;;;7.63;4.32;;;14.50;99.90;;;;;;5050345;28;20049;-69
2022/05/11 05:42:03;;;;;;;7.65;4.10;;;14.50;99.90;;;;;;5051107;28;20052;-69
2022/05/11 05:44:31;;;;;;;8.60;4.30;;;14.50;99.90;;;;;;5044559;28;20106;-68
2022/05/11 05:47:03;;;;;;;9.60;4.38;;;14.40;99.90;;;;;;5044182;28;20045;-69
2022/05/11 05:49:30;;;;;;;6.40;4.60;;;14.40;99.90;;;;;;5048842;28;20052;-70
2022/05/11 05:51:57;;;;;;;13.15;5.05;;;14.40;99.90;;;;;;5049164;28;20040;-67
2022/05/11 05:54:23;;;;;;;7.50;4.25;;;14.70;99.90;;;;;;5032520;28;20029;-70
2022/05/11 05:56:49;;;;;;;10.68;4.78;;;14.50;99.90;;;;;;5026840;28;20056;-67
2022/05/11 05:59:15;;;;;;;8.88;4.38;;;14.60;99.90;;;;;;5046720;28;20404;-71
2022/05/11 06:01:41;;;;;;;9.10;4.53;;;14.70;99.90;;;;;;5034446;28;20051;-69
2022/05/11 06:04:07;;;;;;;10.23;4.20;;;14.70;99.90;;;;;;5044604;28;20041;-72
2022/05/11 06:06:33;;;;;;;9.05;4.10;;;14.80;99.90;;;;;;5019795;28;20042;-66
2022/05/11 06:08:59;;;;;;;11.15;4.70;;;14.80;99.90;;;;;;5045176;28;20045;-71
2022/05/11 06:11:24;;;;;;;7.68;3.97;;;14.80;99.90;;;;;;5049594;28;20071;-69
2022/05/11 06:13:50;;;;;;;7.45;4.32;;;14.70;99.90;;;;;;5026628;28;20094;-70
2022/05/11 06:16:16;;;;;;;12.40;4.90;;;14.80;99.90;;;;;;5048231;28;20492;-66
2022/05/11 06:18:44;;;;;;;9.50;4.22;;;14.90;99.90;;;;;;5051416;28;20044;-70
2022/05/11 06:21:11;;;;;;;8.05;4.45;;;14.90;99.90;;;;;;5053378;28;20055;-69
2022/05/11 06:23:37;;;;;;;11.00;4.93;;;15.00;99.90;;;;;;5043397;28;20036;-72
2022/05/11 06:26:04;;;;;;;9.55;4.68;;;15.00;99.90;;;;;;5047041;28;20383;-69
2022/05/11 06:28:30;;;;;;;8.15;4.28;;;15.10;99.90;;;;;;5052595;28;20053;-71
2022/05/11 06:30:56;;;;;;;12.00;4.85;;;15.20;99.90;;;;;;5023407;28;20499;-71
2022/05/11 06:33:21;;;;;;;8.57;5.03;;;15.40;99.90;;;;;;5048128;28;20033;-74
2022/05/11 06:35:47;;;;;;;12.13;5.00;;;15.30;99.90;;;;;;5044738;28;20082;-67
2022/05/11 06:38:13;;;;;;;10.82;4.97;;;15.30;99.90;;;;;;5031324;28;20072;-69
2022/05/11 06:40:39;;;;;;;8.57;4.35;;;15.40;99.90;;;;;;5047676;28;20052;-67
2022/05/11 06:43:06;;;;;;;12.25;4.45;;;15.40;99.90;;;;;;5044588;28;20036;-72
2022/05/11 06:45:32;;;;;;;8.75;4.60;;;15.60;99.90;;;;;;5028324;28;20033;-68
2022/05/11 06:47:58;;;;;;;10.35;4.72;;;15.70;99.90;;;;;;5052748;28;20049;-70
2022/05/11 06:50:26;;;;;;;13.73;4.68;;;15.70;99.90;;;;;;5031546;28;20063;-71
2022/05/11 06:52:53;;;;;;;15.07;5.68;;;15.70;99.90;;;;;;5047713;28;20134;-68
2022/05/11 07:00:49;;;;;;;8.70;4.82;;;15.60;99.90;;;;;;5035049;28;20056;-68
2022/05/11 07:03:15;;;;;;;10.15;4.82;;;15.70;99.90;;;;;;5045266;28;20041;-68
2022/05/11 07:05:43;;;;;;;11.35;4.80;;;15.70;99.90;;;;;;5028796;28;20442;-67
2022/05/11 07:08:09;;;;;;;11.30;4.97;;;15.70;99.90;;;;;;5031560;28;20106;-69
2022/05/11 07:10:42;;;;;;;10.02;5.22;;;15.60;99.90;;;;;;5014940;28;20098;-69
2022/05/11 07:13:07;;;;;;;11.82;4.72;;;15.70;99.90;;;;;;5045796;28;20043;-68
2022/05/11 07:15:34;;;;;;;9.43;4.72;;;15.70;99.90;;;;;;5049633;28;20037;-70
2022/05/11 07:18:03;;;;;;;12.23;5.28;;;15.80;99.90;;;;;;5049705;28;20473;-66
2022/05/11 07:20:35;;;;;;;9.02;4.43;;;15.90;99.90;;;;;;5037536;28;20469;-70
2022/05/11 07:23:06;;;;;;;9.35;4.45;;;15.90;99.90;;;;;;5036977;28;20079;-68
2022/05/11 07:25:32;;;;;;;8.60;4.65;;;16.00;99.90;;;;;;5044182;28;20041;-70
2022/05/11 07:28:00;;;;;;;10.93;4.57;;;16.10;99.90;;;;;;5043598;28;20041;-70
2022/05/11 07:30:33;;;;;;;12.50;5.13;;;16.10;99.90;;;;;;5018800;28;20048;-72
2022/05/11 07:33:00;;;;;;;14.25;5.35;;;16.20;99.90;;;;;;5040473;28;20392;-71
2022/05/11 07:35:26;;;;;;;10.90;5.45;;;16.20;99.90;;;;;;5026273;28;20041;-71
2022/05/11 07:37:52;;;;;;;13.82;4.93;;;16.10;99.90;;;;;;5023469;28;20118;-70
2022/05/11 07:40:21;;;;;;;10.80;5.38;;;16.10;99.90;;;;;;5008276;28;20057;-68
2022/05/11 07:42:47;;;;;;;12.80;5.80;;;16.20;99.90;;;;;;5040450;28;20805;-69
2022/05/11 07:45:14;;;;;;;14.02;5.70;;;16.30;99.90;;;;;;5044772;28;20051;-69
2022/05/11 07:47:40;;;;;;;9.02;5.13;;;16.40;99.90;;;;;;5029608;28;20057;-69
2022/05/11 07:50:13;;;;;;;11.45;5.43;;;16.40;99.90;;;;;;5039805;28;20131;-68
2022/05/11 07:52:44;;;;;;;10.45;5.13;;;16.40;99.90;;;;;;5041253;28;20503;-67
2022/05/11 07:55:10;;;;;;;11.68;5.20;;;16.60;99.90;;;;;;5033303;28;20078;-71
2022/05/11 08:00:22;;;;;;;9.65;4.90;;;16.80;99.90;;;;;;5040447;28;20049;-68
2022/05/11 08:02:48;;;;;;;9.07;5.03;;;16.60;99.90;;;;;;5033955;28;20149;-68
2022/05/11 08:05:16;;;;;;;12.70;4.82;;;16.90;99.90;;;;;;5028436;28;20128;-68
2022/05/11 08:07:52;;;;;;;11.73;4.65;;;17.10;99.90;;;;;;5044349;28;20501;-67
2022/05/11 08:10:25;;;;;;;7.82;4.13;;;16.90;99.90;;;;;;5041221;28;20404;-71
2022/05/11 08:12:54;;;;;;;12.20;4.10;;;16.90;99.90;;;;;;5054618;28;20591;-69
2022/05/11 08:15:23;;;;;;;9.00;4.05;;;17.00;99.90;;;;;;5023234;28;20090;-68
2022/05/11 08:17:50;;;;;;;12.15;4.28;;;17.00;99.90;;;;;;5042721;28;20094;-73
2022/05/11 08:20:43;;;;;;;9.45;4.05;;;17.20;99.90;;;;;;5031158;28;20045;-72
2022/05/11 08:23:10;;;;;;;8.48;4.18;;;17.30;99.90;;;;;;5038153;28;20064;-70
2022/05/11 08:25:38;;;;;;;11.63;5.25;;;17.50;99.90;;;;;;5042967;28;20571;-69
2022/05/11 08:28:13;;;;;;;8.45;4.32;;;17.60;99.90;;;;;;5045067;28;20053;-69
2022/05/11 08:33:24;;;;;;;7.32;3.40;;;17.70;99.90;;;;;;5028551;28;20115;-70
2022/05/11 08:36:03;;;;;;;7.40;3.70;;;17.90;99.90;;;;;;5038368;28;20126;-69
2022/05/11 08:38:31;;;;;;;11.40;3.92;;;18.00;99.90;;;;;;5040789;28;20056;-68
2022/05/11 08:41:18;;;;;;;15.10;4.30;;;17.90;99.90;;;;;;5040953;28;20106;-66
2022/05/11 08:43:45;;;;;;;10.23;3.08;;;17.80;99.90;;;;;;5041415;28;20402;-68
2022/05/11 08:46:47;;;;;;;11.65;4.20;;;17.90;99.90;;;;;;5023550;28;20123;-69
2022/05/11 08:49:29;;;;;;;9.00;3.60;;;17.90;99.90;;;;;;5039589;28;20040;-71
2022/05/11 08:52:00;;;;;;;9.10;3.63;;;18.00;99.90;;;;;;5058753;28;20041;-67
2022/05/11 08:54:48;;;;;;;12.10;3.67;;;17.60;99.90;;;;;;5039887;28;20067;-69
2022/05/11 08:57:25;;;;;;;11.68;3.45;;;17.80;99.90;;;;;;5037059;28;20037;-67
2022/05/11 09:00:02;;;;;;;9.93;3.20;;;18.10;99.90;;;;;;5037479;28;20049;-69
2022/05/11 09:02:41;;;;;;;7.60;3.40;;;18.10;99.90;;;;;;5026092;28;20048;-68
2022/05/11 09:05:07;;;;;;;11.25;3.22;;;18.30;99.90;;;;;;5029566;28;20049;-66
2022/05/11 09:07:39;;;;;;;8.75;3.10;;;18.40;99.90;;;;;;5029862;28;20041;-68
2022/05/11 09:10:07;;;;;;;14.02;4.75;;;18.50;99.90;;;;;;5031263;28;20857;-70
2022/05/11 09:12:33;;;;;;;10.13;3.30;;;18.40;99.90;;;;;;5039858;28;20068;-68
2022/05/11 09:15:00;;;;;;;8.27;3.05;;;18.60;99.90;;;;;;5031477;28;20128;-68
2022/05/11 09:17:37;;;;;;;8.13;2.92;;;18.70;99.90;;;;;;5042179;28;20049;-71
2022/05/11 09:20:23;;;;;;;8.25;3.30;;;18.50;99.90;;;;;;5042577;28;20084;-68
2022/05/11 09:23:02;;;;;;;12.27;3.47;;;18.50;99.90;;;;;;5026862;28;20420;-68
2022/05/11 09:25:36;;;;;;;7.68;3.03;;;18.40;99.90;;;;;;5042947;28;20809;-69
2022/05/11 09:28:24;;;;;;;10.38;3.00;;;18.30;99.90;;;;;;5043474;28;20476;-68
2022/05/11 09:31:01;;;;;;;14.38;3.22;;;18.30;99.90;;;;;;5040947;28;20037;-69
2022/05/11 09:33:33;;;;;;;8.52;2.95;;;18.30;99.90;;;;;;5048025;28;20056;-69
2022/05/11 09:36:02;;;;;;;9.13;2.97;;;18.80;99.90;;;;;;5058923;28;20033;-67
2022/05/11 09:38:42;;;;;;;5.53;2.47;;;19.40;99.90;;;;;;5028765;28;20048;-70
2022/05/11 09:41:11;;;;;;;9.55;3.03;;;19.40;99.90;;;;;;5044492;28;20136;-68
2022/05/11 09:43:41;;;;;;;9.57;2.85;;;19.10;99.90;;;;;;5024242;28;20057;-69
2022/05/11 09:46:32;;;;;;;9.02;3.60;;;18.70;99.90;;;;;;5015297;28;20037;-67
2022/05/11 09:49:04;;;;;;;7.90;2.78;;;18.50;99.90;;;;;;5043002;28;20618;-70
2022/05/11 09:51:40;;;;;;;10.07;2.72;;;18.50;99.90;;;;;;5039344;28;20676;-69
2022/05/11 09:54:18;;;;;;;11.50;2.88;;;18.30;99.90;;;;;;5041887;28;20051;-67
2022/05/11 09:57:16;;;;;;;9.00;2.85;;;18.50;99.90;;;;;;5042681;28;20071;-69
2022/05/11 09:59:42;;;;;;;11.70;3.03;;;18.60;99.90;;;;;;5021955;28;20053;-68
2022/05/11 10:02:32;;;;;;;10.15;3.15;;;18.80;99.90;;;;;;5044003;28;20041;-72
2022/05/11 10:05:08;;;;;;;8.80;2.67;;;18.60;99.90;;;;;;5044274;28;20048;-66
2022/05/11 10:08:00;;;;;;;9.82;3.42;;;19.10;99.90;;;;;;5014856;28;20049;-70
2022/05/11 10:10:36;;;;;;;6.85;2.50;;;19.10;99.90;;;;;;5029002;28;20472;-67
2022/05/11 10:13:23;;;;;;;5.53;2.13;;;20.10;99.90;;;;;;5048026;28;20045;-71
2022/05/11 10:21:54;;;;;;;9.20;2.67;;;21.20;99.90;;;;;;5043723;28;20057;-67
2022/05/11 10:24:20;;;;;;;10.10;2.47;;;20.80;99.90;;;;;;5030680;28;20076;-67
2022/05/11 10:26:58;;;;;;;8.02;2.22;;;20.10;99.90;;;;;;5045299;28;20079;-69
2022/05/11 10:29:38;;;;;;;5.97;2.40;;;20.40;99.90;;;;;;5046089;28;20045;-71
2022/05/11 10:32:18;;;;;;;7.78;2.20;;;20.30;99.90;;;;;;5043422;28;20040;-67
2022/05/11 10:35:11;;;;;;;5.93;2.17;;;20.70;99.90;;;;;;5046562;28;20116;-66
2022/05/11 10:38:18;;;;;;;6.28;1.85;;;21.10;99.90;;;;;;5043850;28;20429;-71
2022/05/11 10:40:50;;;;;;;9.40;2.83;;;21.80;99.90;;;;;;5046112;28;20147;-72
2022/05/11 10:43:46;;;;;;;6.00;2.00;;;21.20;99.90;;;;;;5045534;28;20053;-69
2022/05/11 10:46:18;;;;;;;7.28;2.13;;;21.50;99.90;;;;;;5040899;28;20139;-68
2022/05/11 10:48:56;;;;;;;5.95;2.40;;;21.40;99.90;;;;;;5046028;28;20043;-70
2022/05/11 10:51:32;;;;;;;5.95;2.20;;;21.40;99.90;;;;;;5043902;28;20041;-73
2022/05/11 10:54:21;;;;;;;7.00;2.47;;;21.80;99.90;;;;;;5047620;28;20079;-70
2022/05/11 10:57:04;;;;;;;7.60;2.58;;;21.50;99.90;;;;;;5038239;28;20053;-70
2022/05/11 10:59:54;;;;;;;6.00;2.05;;;21.80;99.90;;;;;;5044971;28;20131;-70
2022/05/11 11:02:48;;;;;;;8.57;2.40;;;21.80;99.90;;;;;;5043021;28;20045;-68
2022/05/11 11:05:29;;;;;;;7.57;2.38;;;21.50;99.90;;;;;;5027367;28;20057;-69
2022/05/11 11:08:10;;;;;;;11.38;2.45;;;21.50;99.90;;;;;;5037544;28;20086;-72
2022/05/11 11:10:49;;;;;;;8.68;2.47;;;22.20;99.90;;;;;;5029744;28;20123;-68
2022/05/11 11:13:28;;;;;;;7.82;2.90;;;22.40;99.90;;;;;;5028853;28;20040;-71
2022/05/11 11:15:55;;;;;;;9.10;2.38;;;22.30;99.90;;;;;;5039023;28;20481;-70
2022/05/11 11:18:33;;;;;;;12.25;2.63;;;22.50;99.90;;;;;;5039413;28;20127;-70
2022/05/11 11:21:02;;;;;;;6.30;2.20;;;22.80;99.90;;;;;;5036427;28;20045;-70
2022/05/11 11:23:34;;;;;;;7.53;2.80;;;22.70;99.90;;;;;;5046192;28;20416;-69
2022/05/11 11:26:06;;;;;;;7.32;2.40;;;22.80;99.90;;;;;;5044049;28;20045;-69
2022/05/11 11:28:53;;;;;;;4.65;1.70;;;22.80;99.90;;;;;;5042670;28;20037;-73
2022/05/11 11:31:29;;;;;;;8.38;2.20;;;22.90;99.90;;;;;;5027232;28;20941;-68
2022/05/11 11:34:04;;;;;;;5.93;2.65;;;22.70;99.90;;;;;;5043212;28;20048;-70
2022/05/11 11:36:33;;;;;;;5.10;2.17;;;23.00;99.90;;;;;;5026777;28;20041;-68
2022/05/11 11:39:01;;;;;;;6.60;2.08;;;23.00;99.90;;;;;;5027323;28;20136;-69
2022/05/11 11:41:32;;;;;;;7.45;2.30;;;22.70;99.90;;;;;;5044713;28;20450;-67
2022/05/11 11:44:02;;;;;;;7.68;2.20;;;23.40;99.90;;;;;;5044217;28;20131;-70
2022/05/11 11:46:38;;;;;;;5.38;2.03;;;21.80;99.90;;;;;;5036624;28;20382;-73
2022/05/11 11:49:21;;;;;;;5.68;2.33;;;21.20;99.90;;;;;;5039284;28;20052;-70
2022/05/11 11:51:50;;;;;;;7.77;2.10;;;20.90;99.90;;;;;;5041525;28;20068;-67
2022/05/11 11:54:38;;;;;;;4.65;1.80;;;20.70;99.90;;;;;;5045015;28;20040;-72
2022/05/11 11:57:16;;;;;;;7.38;1.73;;;21.00;99.90;;;;;;5041258;28;20040;-67
2022/05/11 12:00:05;;;;;;;5.68;1.85;;;21.60;99.90;;;;;;5032754;28;20047;-67
2022/05/11 12:02:44;;;;;;;5.65;1.75;;;22.20;99.90;;;;;;5040786;28;20045;-68
2022/05/11 12:05:43;;;;;;;5.22;1.80;;;21.80;99.90;;;;;;5039386;28;20049;-68
2022/05/11 12:16:56;;;;;;;7.45;1.90;;;21.90;99.90;;;;;;5046164;28;20041;-69
2022/05/11 12:19:34;;;;;;;4.45;1.42;;;22.40;99.90;;;;;;5043895;28;20040;-69
2022/05/11 12:22:02;;;;;;;7.63;1.70;;;22.10;98.50;;;;;;5044875;28;20044;-69
2022/05/11 12:25:02;;;;;;;7.68;2.03;;;22.40;98.60;;;;;;5019721;28;20037;-73
2022/05/11 12:27:35;;;;;;;7.95;1.67;;;21.70;99.90;;;;;;5009975;28;20056;-69
2022/05/11 12:30:18;;;;;;;4.00;1.60;;;21.70;99.90;;;;;;5041600;28;20036;-68
2022/05/11 12:32:59;;;;;;;5.68;1.50;;;22.10;99.90;;;;;;5044708;28;20140;-70
2022/05/11 12:35:36;;;;;;;4.72;1.30;;;21.90;99.70;;;;;;5038675;28;20662;-71
2022/05/11 12:38:08;;;;;;;4.18;1.63;;;22.00;99.90;;;;;;5037141;28;20477;-69
2022/05/11 12:40:42;;;;;;;5.72;1.98;;;22.20;99.90;;;;;;5041512;28;20091;-69
2022/05/11 12:43:15;;;;;;;4.65;1.55;;;22.10;96.90;;;;;;5044795;28;20056;-69
2022/05/11 12:45:46;;;;;;;3.25;1.50;;;21.70;98.50;;;;;;5042493;28;20044;-68
2022/05/11 12:48:22;;;;;;;6.65;1.67;;;22.00;99.90;;;;;;5044522;28;20794;-70
2022/05/11 12:51:05;;;;;;;3.33;1.35;;;22.20;98.70;;;;;;5055484;28;20460;-70
2022/05/11 12:53:36;;;;;;;5.07;1.67;;;22.00;98.80;;;;;;5044297;28;20243;-71
2022/05/11 12:56:21;;;;;;;3.28;1.15;;;22.20;99.90;;;;;;5022356;28;20048;-70
2022/05/11 12:58:50;;;;;;;9.60;1.27;;;22.40;95.70;;;;;;5041560;28;20156;-68
2022/05/11 13:01:21;;;;;;;4.53;1.50;;;22.20;99.30;;;;;;5060414;28;20037;-69
2022/05/11 13:03:50;;;;;;;5.47;1.63;;;22.30;96.30;;;;;;5043655;28;20143;-68
2022/05/11 13:06:26;;;;;;;5.82;1.90;;;22.60;97.00;;;;;;5027631;28;20128;-68
2022/05/11 13:08:56;;;;;;;4.40;1.85;;;23.00;97.30;;;;;;5033228;28;20073;-72
2022/05/11 13:11:24;;;;;;;5.55;1.40;;;22.20;95.90;;;;;;5044310;28;20120;-71
2022/05/11 13:13:55;;;;;;;7.32;1.70;;;22.70;97.80;;;;;;5043375;28;20045;-71
2022/05/11 13:16:31;;;;;;;5.43;1.58;;;22.70;95.10;;;;;;5017409;28;20029;-71
2022/05/11 13:19:26;;;;;;;6.57;1.80;;;22.20;96.90;;;;;;5040703;28;20045;-69
2022/05/11 13:21:55;;;;;;;6.13;1.90;;;22.50;96.00;;;;;;5022494;28;20052;-68
2022/05/11 13:24:45;;;;;;;5.20;1.65;;;22.50;97.50;;;;;;5042751;28;20052;-70
2022/05/11 13:27:34;;;;;;;6.97;2.00;;;22.70;97.40;;;;;;5039736;28;20041;-68
2022/05/11 13:30:10;;;;;;;6.85;1.67;;;23.00;97.10;;;;;;5042168;28;20102;-68
2022/05/11 13:32:55;;;;;;;5.88;2.00;;;23.50;93.20;;;;;;5043055;28;20045;-72
2022/05/11 13:35:21;;;;;;;9.02;2.00;;;23.40;93.10;;;;;;5028244;28;20152;-72
2022/05/11 13:38:08;;;;;;;10.50;1.90;;;23.40;96.30;;;;;;5040196;28;20053;-71